Latest Weather Observations for Cape Grim

IDT60801

Issued at 10:01 am EDT Friday 12 February 2016 (issued every 30 minutes, with the page automatically refreshed every 10 minutes)

About weather observations | Map of weather stations | Latest weather observations for TAS | Other Formats
Station Details ID: 091331 Name: CAPE GRIM Lat: -40.68 Lon: 144.69 Height: 86.0 m
Data from the previous 72 hours. | See also: Recent months at Cape Grim
Date/Time
EDT
Temp
°C
App
Temp
°C
Dew
Point
Rel
Hum
%
Delta-T
°C
Wind Press
QNH
hPa
Press
MSL
hPa
Rain
since 9 am
mm
Dir
 
Spd
km/h
Gust
km/h
Spd
kts
Gust
kts
12/10:00am 18.3 17.7 13.6 74 2.7 E 9 13 5 7 1016.6 1016.5 0.0
12/09:52am 17.9 16.8 13.2 74 2.7 E 11 15 6 8 1016.6 1016.5 0.0
12/09:30am 17.5 16.7 12.8 74 2.6 ESE 9 13 5 7 1016.8 1016.7 0.0
12/09:00am 16.7 15.9 13.0 79 2.1 ESE 9 11 5 6 1017.0 1016.9 0.0
12/08:30am 15.3 13.4 11.9 80 1.8 ESE 13 17 7 9 1016.6 1016.5 0.0
12/08:00am 15.1 14.0 12.1 82 1.6 SSE 9 13 5 7 1016.3 1016.2 0.0
12/07:30am 14.4 12.8 11.6 83 1.5 SE 11 15 6 8 1016.1 1016.0 0.0
12/07:00am 13.9 12.1 10.7 81 1.7 SE 11 15 6 8 1015.7 1015.6 0.0
12/06:30am 14.0 10.6 10.6 80 1.8 SE 19 20 10 11 1015.5 1015.4 0.0
12/06:04am 14.0 11.7 10.6 80 1.8 SE 13 19 7 10 1015.4 1015.3 0.0
12/06:00am 14.0 11.7 10.4 79 1.9 SE 13 15 7 8 1015.4 1015.3 0.0
12/05:30am 14.5 12.6 10.5 77 2.1 SSE 11 13 6 7 1015.4 1015.3 0.0
12/05:19am 14.4 12.5 10.4 77 2.1 S 11 13 6 7 1015.4 1015.3 0.0
12/05:00am 14.0 11.9 9.8 76 2.2 S 11 13 6 7 1015.6 1015.5 0.0
12/04:30am 14.5 11.7 10.1 75 2.3 S 15 17 8 9 1015.8 1015.7 0.0
12/04:00am 14.4 10.5 9.6 73 2.5 S 20 22 11 12 1015.9 1015.8 0.0
12/03:30am 14.4 12.2 9.2 71 2.7 SSW 11 17 6 9 1016.1 1016.0 0.0
12/03:00am 14.5 11.2 9.5 72 2.6 S 17 28 9 15 1016.3 1016.2 0.0
12/02:30am 14.5 10.8 9.5 72 2.6 S 19 30 10 16 1016.5 1016.4 0.0
12/02:00am 14.9 9.6 9.7 71 2.7 S 28 41 15 22 1016.8 1016.7 0.0
12/01:30am 15.0 9.8 10.2 73 2.5 S 28 37 15 20 1017.0 1016.9 0.0
12/01:00am 15.0 8.9 9.6 70 2.8 S 32 43 17 23 1017.3 1017.2 0.0
12/12:30am 14.9 9.1 9.3 69 2.9 S 30 43 16 23 1017.4 1017.3 0.0
12/12:00am 14.7 10.8 9.3 70 2.8 S 20 32 11 17 1017.5 1017.4 0.0
 
Date/Time
EDT
Temp
°C
App
Temp
°C
Dew
Point
Rel
Hum
%
Delta-T
°C
Wind Press
QNH
hPa
Press
MSL
hPa
Rain
since 9 am
mm
Dir
 
Spd
km/h
Gust
km/h
Spd
kts
Gust
kts
11/11:30pm 14.9 10.3 9.5 70 2.8 S 24 35 13 19 1017.9 1017.7 0.0
11/11:00pm 15.3 10.0 9.7 69 2.9 S 28 41 15 22 1017.9 1017.7 0.0
11/10:30pm 15.5 10.4 10.5 72 2.6 S 28 37 15 20 1017.8 1017.6 0.0
11/10:00pm 15.6 10.1 10.6 72 2.7 SSW 30 46 16 25 1017.5 1017.4 0.0
11/09:30pm 15.9 10.0 11.1 73 2.6 SSW 33 44 18 24 1017.2 1017.1 0.0
11/09:00pm 16.1 9.5 11.3 73 2.6 SSW 37 48 20 26 1017.2 1017.1 0.0
11/08:30pm 16.3 10.7 11.5 73 2.6 SSW 32 44 17 24 1017.1 1017.0 0.0
11/08:00pm 16.7 10.9 11.6 72 2.8 SSW 33 48 18 26 1016.8 1016.7 0.0
11/07:30pm 17.0 10.8 11.5 70 3.0 SSW 35 50 19 27 1016.6 1016.5 0.0
11/07:17pm 17.0 10.8 11.3 69 3.1 SSW 35 54 19 29 1016.4 1016.3 0.0
11/07:00pm 17.6 11.8 11.4 67 3.4 SSW 33 44 18 24 1016.3 1016.2 0.0
11/06:30pm 18.1 12.4 11.9 67 3.4 SSW 33 48 18 26 1016.2 1016.1 0.0
11/06:11pm 18.3 12.2 11.6 65 3.7 SW 35 54 19 29 1016.2 1016.1 0.0
11/06:00pm 17.9 10.5 11.2 65 3.6 SW 41 57 22 31 1016.4 1016.3 0.0
11/05:55pm 18.0 11.0 11.1 64 3.8 SW 39 57 21 31 1016.3 1016.2 0.0
11/05:30pm 18.4 12.9 11.7 65 3.7 SSW 32 43 17 23 1016.1 1016.0 0.0
11/05:00pm 19.0 13.5 12.0 64 3.9 SSW 32 46 17 25 1016.0 1015.9 0.0
11/04:30pm 18.5 12.4 11.6 64 3.8 SW 35 48 19 26 1016.1 1016.0 0.0
11/04:00pm 19.0 13.5 12.0 64 3.9 SW 32 46 17 25 1016.2 1016.1 0.0
11/03:30pm 19.0 12.1 11.6 62 4.1 SW 39 52 21 28 1016.5 1016.4 0.0
11/03:00pm 19.3 13.8 12.3 64 3.9 SW 33 41 18 22 1016.7 1016.6 0.0
11/02:30pm 19.2 14.3 12.7 66 3.7 SW 30 41 16 22 1016.9 1016.8 0.0
11/02:00pm 19.4 14.7 13.1 67 3.6 SW 30 39 16 21 1017.0 1016.9 0.0
11/01:30pm 19.6 14.6 12.1 62 4.2 SW 30 37 16 20 1017.0 1016.9 0.0
11/01:00pm 18.8 14.0 11.6 63 4.0 SW 28 37 15 20 1017.0 1016.9 0.0
11/12:30pm 19.3 15.1 11.1 59 4.5 SW 24 32 13 17 1017.0 1016.9 0.0
11/12:00pm 18.7 14.0 10.5 59 4.4 SW 26 33 14 18 1017.3 1017.2 0.0
11/11:30am 19.1 14.9 11.2 60 4.3 SW 24 32 13 17 1017.3 1017.2 0.0
11/11:00am 18.5 13.7 10.3 59 4.4 SW 26 30 14 16 1017.4 1017.3 0.0
11/10:30am 19.2 15.0 11.0 59 4.5 SW 24 35 13 19 1017.5 1017.4 0.0
11/10:00am 18.5 15.3 11.8 65 3.7 SSW 20 26 11 14 1017.8 1017.6 0.0
11/09:30am 17.7 14.2 10.8 64 3.7 SSW 20 28 11 15 1017.6 1017.5 0.0
11/09:00am 17.5 14.3 11.1 66 3.5 S 19 28 10 15 1017.3 1017.2 0.0
11/08:30am 17.1 14.4 11.6 70 3.0 SSE 17 22 9 12 1017.1 1017.0 0.0
11/08:00am 16.4 13.7 11.6 73 2.6 SSE 17 20 9 11 1016.9 1016.8 0.0
11/07:30am 15.6 13.3 11.6 77 2.2 SSE 15 20 8 11 1016.6 1016.5 0.0
11/07:00am 14.8 12.7 11.2 79 1.9 SSE 13 20 7 11 1016.2 1016.1 0.0
11/06:30am 15.0 12.2 11.2 78 2.0 SSE 17 20 9 11 1015.9 1015.8 0.0
11/06:00am 15.4 12.3 11.6 78 2.1 SSE 19 22 10 12 1015.7 1015.6 0.0
11/05:30am 15.8 13.3 12.2 79 2.0 S 17 20 9 11 1015.6 1015.5 0.0
11/05:00am 16.5 13.2 12.7 78 2.1 S 22 30 12 16 1015.2 1015.1 0.0
11/04:30am 16.5 12.9 13.2 81 1.9 S 24 32 13 17 1015.1 1015.0 0.0
11/04:00am 16.8 13.8 13.7 82 1.8 SSW 22 30 12 16 1015.0 1014.9 0.0
11/03:30am 17.1 13.8 14.0 82 1.8 SSW 24 33 13 18 1015.0 1014.9 0.0
11/03:00am 16.9 13.9 14.7 87 1.3 SSW 24 32 13 17 1015.0 1014.9 0.0
11/02:45am 17.0 13.2 14.6 86 1.4 SW 28 39 15 21 1015.0 1014.9 0.0
11/02:30am 17.4 14.4 14.9 85 1.5 SW 24 41 13 22 1015.1 1015.0 0.0
11/02:29am 17.4 14.7 14.7 84 1.6 WSW 22 41 12 22 1015.1 1015.0 0.0
11/02:00am 17.3 15.1 14.4 83 1.7 WSW 19 33 10 18 1015.2 1015.1 0.0
11/01:30am 17.2 14.7 14.1 82 1.8 SW 20 32 11 17 1015.4 1015.3 0.0
11/01:00am 17.2 14.3 14.1 82 1.8 SW 22 35 12 19 1015.4 1015.3 0.0
11/12:58am 17.2 13.9 14.1 82 1.8 SW 24 35 13 19 1015.4 1015.3 0.0
11/12:42am 17.4 14.7 14.5 83 1.7 SW 22 35 12 19 1015.5 1015.4 0.0
11/12:30am 17.4 14.7 14.5 83 1.7 SW 22 32 12 17 1015.5 1015.4 0.0
11/12:06am 17.5 13.6 14.4 82 1.8 SW 28 35 15 19 1015.5 1015.4 0.0
11/12:00am 17.3 13.3 14.0 81 1.9 SW 28 37 15 20 1015.5 1015.4 0.0
 
Date/Time
EDT
Temp
°C
App
Temp
°C
Dew
Point
Rel
Hum
%
Delta-T
°C
Wind Press
QNH
hPa
Press
MSL
hPa
Rain
since 9 am
mm
Dir
 
Spd
km/h
Gust
km/h
Spd
kts
Gust
kts
10/11:30pm 17.6 14.5 14.5 82 1.8 SW 24 32 13 17 1015.5 1015.4 0.0
10/11:19pm 17.2 14.3 13.9 81 1.9 SW 22 33 12 18 1015.5 1015.4 0.0
10/11:00pm 17.7 14.6 14.4 81 1.9 SW 24 33 13 18 1015.5 1015.4 0.0
10/10:30pm 17.3 13.6 13.8 80 2.0 SW 26 35 14 19 1015.5 1015.4 0.0
10/10:00pm 17.3 12.7 13.6 79 2.1 SW 30 39 16 21 1015.4 1015.3 0.0
10/09:30pm 17.5 12.7 14.0 80 2.0 SW 32 43 17 23 1015.3 1015.2 0.0
10/09:00pm 17.5 12.6 13.8 79 2.1 SW 32 43 17 23 1015.1 1015.0 0.0
10/08:30pm 17.6 12.4 13.5 77 2.3 SW 33 44 18 24 1014.9 1014.8 0.0
10/08:00pm 17.9 14.2 13.8 77 2.3 SW 26 39 14 21 1014.7 1014.6 0.0
10/07:30pm 18.0 13.8 13.5 75 2.6 SW 28 43 15 23 1014.3 1014.2 0.0
10/07:00pm 17.9 12.9 13.4 75 2.6 SW 32 44 17 24 1014.2 1014.1 0.0
10/06:30pm 18.0 13.0 13.3 74 2.7 SW 32 43 17 23 1014.0 1013.9 0.0
10/06:00pm 17.9 14.4 13.4 75 2.6 SW 24 41 13 22 1013.9 1013.8 0.0
10/05:46pm 17.7 13.5 13.4 76 2.4 WSW 28 46 15 25 1013.9 1013.8 0.0
10/05:30pm 18.0 13.7 13.1 73 2.8 SW 28 43 15 23 1013.8 1013.7 0.0
10/05:22pm 18.3 14.0 13.2 72 2.9 SW 28 46 15 25 1013.8 1013.7 0.0
10/05:00pm 18.8 14.6 13.6 72 3.0 SW 28 44 15 24 1013.8 1013.7 0.0
10/04:30pm 18.4 13.8 12.4 68 3.3 SW 28 43 15 23 1013.8 1013.7 0.0
10/04:05pm 18.5 14.0 12.7 69 3.3 WSW 28 48 15 26 1014.1 1014.0 0.0
10/04:00pm 18.4 13.9 12.6 69 3.2 WSW 28 43 15 23 1014.1 1014.0 0.0
10/03:30pm 18.4 15.0 12.6 69 3.2 SW 22 41 12 22 1014.1 1014.0 0.0
10/03:00pm 18.5 14.8 12.7 69 3.3 SW 24 41 13 22 1014.4 1014.3 0.0
10/02:30pm 19.1 16.5 13.7 71 3.1 WSW 20 35 11 19 1014.4 1014.3 0.0
10/02:00pm 18.7 14.9 12.5 67 3.5 SW 24 35 13 19 1014.6 1014.5 0.0
10/01:30pm 18.3 14.3 13.0 71 3.0 SW 26 37 14 20 1014.6 1014.5 0.0
10/01:16pm 18.2 13.9 13.3 73 2.8 SW 28 39 15 21 1014.7 1014.6 0.0
10/01:00pm 19.0 15.1 14.5 75 2.6 SW 28 39 15 21 1014.8 1014.7 0.0
10/12:45pm 18.3 14.3 14.0 76 2.5 SW 28 37 15 20 1014.9 1014.8 0.0
10/12:30pm 18.6 15.4 14.3 76 2.5 SW 24 37 13 20 1015.0 1014.9 0.0
10/12:00pm 17.8 15.2 13.3 75 2.5 WSW 19 30 10 16 1015.2 1015.1 0.0
10/11:30am 17.4 15.0 12.7 74 2.6 WSW 17 28 9 15 1015.4 1015.3 0.0
10/11:00am 17.9 15.2 12.8 72 2.9 WSW 19 37 10 20 1015.3 1015.2 0.0
10/10:30am 17.1 14.2 12.4 74 2.6 WSW 19 28 10 15 1015.5 1015.4 0.0
10/10:00am 17.8 15.0 12.7 72 2.9 SW 19 28 10 15 1015.3 1015.2 0.0
10/09:30am 17.7 14.2 12.2 70 3.0 SW 22 28 12 15 1015.4 1015.3 0.0
10/09:00am 17.3 13.4 12.2 72 2.8 SW 24 30 13 16 1015.3 1015.2 0.0
10/08:30am 16.5 11.7 11.6 73 2.7 SW 28 33 15 18 1015.2 1015.1 0.0
10/08:00am 16.3 11.5 11.5 73 2.6 SW 28 35 15 19 1014.9 1014.8 0.0
10/07:30am 16.0 10.3 11.0 72 2.7 SW 32 35 17 19 1014.7 1014.6 0.0
10/07:00am 15.9 10.9 11.1 73 2.6 SW 28 35 15 19 1014.5 1014.4 0.0
10/06:30am 15.8 11.1 10.8 72 2.7 SW 26 35 14 19 1014.5 1014.4 0.0
10/06:00am 15.8 10.8 11.0 73 2.6 SW 28 35 15 19 1014.4 1014.3 0.0
10/05:30am 15.8 10.9 11.4 75 2.4 SW 28 33 15 18 1014.4 1014.3 0.0
10/05:00am 15.9 10.7 11.7 76 2.3 SW 30 37 16 20 1014.5 1014.4 0.0
10/04:30am 15.7 11.3 11.7 77 2.2 SW 26 32 14 17 1014.6 1014.5 0.0
10/04:00am 15.5 11.4 11.5 77 2.2 SW 24 30 13 16 1014.7 1014.6 0.0
10/03:30am 15.6 12.4 11.8 78 2.1 SW 20 28 11 15 1014.9 1014.8 0.0
10/03:00am 15.6 11.2 11.6 77 2.2 SW 26 32 14 17 1015.0 1014.9 0.0
10/02:30am 15.7 11.7 11.7 77 2.2 SW 24 32 13 17 1015.2 1015.1 0.0
10/02:00am 16.0 11.7 12.2 78 2.1 SW 26 35 14 19 1015.5 1015.4 0.0
10/01:30am 16.1 11.6 12.5 79 2.0 SW 28 35 15 19 1015.8 1015.7 0.0
10/01:00am 15.9 13.0 12.8 82 1.7 SW 20 28 11 15 1016.0 1015.9 0.0
10/12:30am 15.7 12.7 12.6 82 1.7 SSW 20 26 11 14 1016.3 1016.2 0.0
10/12:00am 15.5 13.0 12.3 81 1.8 SSW 17 22 9 12 1016.3 1016.2 0.0
 
Date/Time
EDT
Temp
°C
App
Temp
°C
Dew
Point
Rel
Hum
%
Delta-T
°C
Wind Press
QNH
hPa
Press
MSL
hPa
Rain
since 9 am
mm
Dir
 
Spd
km/h
Gust
km/h
Spd
kts
Gust
kts
09/11:30pm 15.6 12.1 12.2 80 1.9 SSW 22 28 12 15 1016.4 1016.3 0.0
09/11:00pm 15.5 12.9 11.9 79 2.0 S 17 22 9 12 1016.7 1016.6 0.0
09/10:30pm 16.1 12.6 12.3 78 2.1 S 22 30 12 16 1016.9 1016.8 0.0
09/10:00pm 16.3 11.7 12.3 77 2.2 SSW 28 35 15 19 1017.3 1017.2 0.0
09/09:30pm 16.6 11.7 12.6 77 2.2 SSW 30 41 16 22 1017.4 1017.3 0.0
09/09:00pm 16.8 11.9 12.7 77 2.3 SW 30 39 16 21 1017.3 1017.2 0.0
09/08:30pm 16.8 11.6 12.9 78 2.2 SW 32 41 17 22 1017.5 1017.4 0.0
09/08:00pm 16.7 11.3 12.8 78 2.2 SW 33 44 18 24 1017.4 1017.3 0.0
09/07:30pm 17.2 11.1 13.1 77 2.3 SW 37 44 20 24 1017.6 1017.5 0.0
09/07:00pm 17.6 11.5 13.1 75 2.5 SW 37 44 20 24 1017.9 1017.7 0.0
09/06:30pm 18.1 12.6 13.6 75 2.6 SW 35 43 19 23 1017.8 1017.6 0.0
09/06:00pm 18.6 13.6 14.1 75 2.6 SW 33 41 18 22 1018.0 1017.8 0.0
09/05:30pm 18.8 13.7 13.6 72 3.0 SW 33 41 18 22 1018.3 1018.1 0.0
09/05:00pm 18.8 13.7 13.0 69 3.3 SW 32 39 17 21 1018.4 1018.2 0.0
09/04:30pm 19.4 14.7 13.1 67 3.6 SW 30 37 16 20 1018.7 1018.5 0.0
09/04:00pm 19.3 14.9 13.0 67 3.6 SW 28 33 15 18 1019.0 1018.8 0.0
09/03:30pm 19.7 15.6 13.9 69 3.3 SW 28 33 15 18 1019.2 1019.0 0.0
09/03:00pm 19.7 15.9 13.6 68 3.5 SW 26 30 14 16 1019.3 1019.1 0.0
09/02:30pm 19.9 16.2 14.0 69 3.4 SW 26 32 14 17 1019.7 1019.5 0.0
09/02:00pm 19.7 16.2 13.4 67 3.6 SW 24 35 13 19 1020.1 1019.9 0.0
09/01:30pm 19.8 16.3 14.4 71 3.1 SW 26 33 14 18 1020.3 1020.1 0.0
09/01:00pm 19.4 15.1 13.3 68 3.5 SW 28 35 15 19 1020.5 1020.3 0.0
09/12:30pm 19.6 15.9 13.8 69 3.3 SW 26 32 14 17 1020.7 1020.5 0.0
09/12:00pm 19.3 15.8 13.3 68 3.4 SW 24 32 13 17 1021.0 1020.8 0.0
09/11:30am 18.6 15.4 13.0 70 3.2 SW 22 32 12 17 1021.1 1020.9 0.0
09/11:00am 19.2 16.7 13.4 69 3.3 SW 19 26 10 14 1020.9 1020.7 0.0
09/10:30am 19.0 16.7 13.0 68 3.4 SSW 17 20 9 11 1021.0 1020.8 0.0

Other Formats:

Comma delimited format used in spreadsheet applications
http://www.bom.gov.au/fwo/IDT60801/IDT60801.95954.axf

JavaScript Object Notation format (JSON) in row-major order
http://www.bom.gov.au/fwo/IDT60801/IDT60801.95954.json